sensor_id;sensor_type;location;lat;lon;timestamp;pressure;altitude;pressure_sealevel;temperature;humidity
65190;BME280;51777;53.570;9.984;2023-08-31T00:00:52;100211.38;;;14.14;100.00
65190;BME280;51777;53.570;9.984;2023-08-31T00:03:18;100216.47;;;14.07;100.00
65190;BME280;51777;53.570;9.984;2023-08-31T00:05:45;100215.69;;;14.07;100.00
65190;BME280;51777;53.570;9.984;2023-08-31T00:08:10;100211.66;;;14.04;100.00
65190;BME280;51777;53.570;9.984;2023-08-31T00:10:36;100207.78;;;14.00;100.00
65190;BME280;51777;53.570;9.984;2023-08-31T00:13:03;100203.56;;;13.99;100.00
65190;BME280;51777;53.570;9.984;2023-08-31T00:15:28;100197.56;;;13.99;100.00
65190;BME280;51777;53.570;9.984;2023-08-31T00:17:54;100198.31;;;13.93;100.00
65190;BME280;51777;53.570;9.984;2023-08-31T00:20:20;100206.09;;;13.93;100.00
65190;BME280;51777;53.570;9.984;2023-08-31T00:22:46;100206.47;;;13.90;100.00
65190;BME280;51777;53.570;9.984;2023-08-31T00:25:12;100213.00;;;13.86;100.00
65190;BME280;51777;53.570;9.984;2023-08-31T00:27:37;100209.78;;;13.84;100.00
65190;BME280;51777;53.570;9.984;2023-08-31T00:30:05;100212.13;;;13.78;100.00
65190;BME280;51777;53.570;9.984;2023-08-31T00:32:33;100218.44;;;13.76;100.00
65190;BME280;51777;53.570;9.984;2023-08-31T00:34:59;100208.41;;;13.73;100.00
65190;BME280;51777;53.570;9.984;2023-08-31T00:37:24;100208.16;;;13.68;100.00
65190;BME280;51777;53.570;9.984;2023-08-31T00:39:50;100204.28;;;13.64;100.00
65190;BME280;51777;53.570;9.984;2023-08-31T00:42:17;100205.13;;;13.64;100.00
65190;BME280;51777;53.570;9.984;2023-08-31T00:44:43;100209.22;;;13.59;100.00
65190;BME280;51777;53.570;9.984;2023-08-31T00:47:12;100212.53;;;13.52;100.00
65190;BME280;51777;53.570;9.984;2023-08-31T00:49:37;100215.75;;;13.55;100.00
65190;BME280;51777;53.570;9.984;2023-08-31T00:52:04;100222.38;;;13.42;100.00
65190;BME280;51777;53.570;9.984;2023-08-31T00:54:30;100218.50;;;13.38;100.00
65190;BME280;51777;53.570;9.984;2023-08-31T00:56:56;100222.69;;;13.39;100.00
65190;BME280;51777;53.570;9.984;2023-08-31T00:59:23;100214.75;;;13.41;100.00
65190;BME280;51777;53.570;9.984;2023-08-31T01:04:33;100211.88;;;13.36;100.00
65190;BME280;51777;53.570;9.984;2023-08-31T01:10:02;100211.31;;;13.26;100.00
65190;BME280;51777;53.570;9.984;2023-08-31T01:15:09;100214.44;;;13.21;100.00
65190;BME280;51777;53.570;9.984;2023-08-31T01:17:47;100218.03;;;13.20;100.00
65190;BME280;51777;53.570;9.984;2023-08-31T01:20:19;100211.53;;;13.16;100.00
65190;BME280;51777;53.570;9.984;2023-08-31T01:22:59;100223.38;;;13.18;100.00
65190;BME280;51777;53.570;9.984;2023-08-31T01:25:26;100226.00;;;13.18;100.00
65190;BME280;51777;53.570;9.984;2023-08-31T01:27:53;100225.84;;;13.12;100.00
65190;BME280;51777;53.570;9.984;2023-08-31T01:30:18;100227.44;;;13.13;100.00
65190;BME280;51777;53.570;9.984;2023-08-31T01:32:44;100226.81;;;13.11;100.00
65190;BME280;51777;53.570;9.984;2023-08-31T01:35:16;100228.97;;;13.07;100.00
65190;BME280;51777;53.570;9.984;2023-08-31T01:37:54;100226.38;;;13.07;100.00
65190;BME280;51777;53.570;9.984;2023-08-31T01:40:36;100236.94;;;13.06;100.00
65190;BME280;51777;53.570;9.984;2023-08-31T01:43:04;100237.72;;;13.06;100.00
65190;BME280;51777;53.570;9.984;2023-08-31T01:45:32;100236.75;;;13.07;100.00
65190;BME280;51777;53.570;9.984;2023-08-31T01:47:58;100233.22;;;13.00;100.00
65190;BME280;51777;53.570;9.984;2023-08-31T01:50:24;100235.75;;;13.08;100.00
65190;BME280;51777;53.570;9.984;2023-08-31T01:52:51;100232.19;;;13.09;100.00
65190;BME280;51777;53.570;9.984;2023-08-31T01:55:18;100234.59;;;13.11;100.00
65190;BME280;51777;53.570;9.984;2023-08-31T01:57:43;100239.16;;;13.09;100.00
65190;BME280;51777;53.570;9.984;2023-08-31T02:00:10;100245.06;;;13.03;100.00
65190;BME280;51777;53.570;9.984;2023-08-31T02:02:35;100246.03;;;13.02;100.00
65190;BME280;51777;53.570;9.984;2023-08-31T02:05:02;100245.75;;;12.97;100.00
65190;BME280;51777;53.570;9.984;2023-08-31T02:07:29;100247.06;;;12.92;100.00
65190;BME280;51777;53.570;9.984;2023-08-31T02:09:54;100249.38;;;12.87;100.00
65190;BME280;51777;53.570;9.984;2023-08-31T02:12:20;100250.06;;;12.81;100.00
65190;BME280;51777;53.570;9.984;2023-08-31T02:14:45;100246.03;;;12.79;100.00
65190;BME280;51777;53.570;9.984;2023-08-31T02:17:11;100242.97;;;12.75;100.00
65190;BME280;51777;53.570;9.984;2023-08-31T02:19:36;100244.75;;;12.75;100.00
65190;BME280;51777;53.570;9.984;2023-08-31T02:22:01;100247.22;;;12.68;100.00
65190;BME280;51777;53.570;9.984;2023-08-31T02:24:27;100246.25;;;12.69;100.00
65190;BME280;51777;53.570;9.984;2023-08-31T02:26:52;100245.63;;;12.67;100.00
65190;BME280;51777;53.570;9.984;2023-08-31T02:29:17;100241.72;;;12.63;100.00
65190;BME280;51777;53.570;9.984;2023-08-31T02:31:43;100237.88;;;12.59;100.00
65190;BME280;51777;53.570;9.984;2023-08-31T02:34:10;100243.22;;;12.57;100.00
65190;BME280;51777;53.570;9.984;2023-08-31T02:36:35;100236.78;;;12.53;100.00
65190;BME280;51777;53.570;9.984;2023-08-31T02:39:01;100243.41;;;12.56;100.00
65190;BME280;51777;53.570;9.984;2023-08-31T02:41:28;100238.88;;;12.50;100.00
65190;BME280;51777;53.570;9.984;2023-08-31T02:43:55;100243.09;;;12.51;100.00
65190;BME280;51777;53.570;9.984;2023-08-31T02:46:20;100242.78;;;12.54;100.00
65190;BME280;51777;53.570;9.984;2023-08-31T02:48:46;100243.09;;;12.51;100.00
65190;BME280;51777;53.570;9.984;2023-08-31T02:51:11;100259.97;;;12.47;100.00
65190;BME280;51777;53.570;9.984;2023-08-31T02:53:37;100254.16;;;12.45;100.00
65190;BME280;51777;53.570;9.984;2023-08-31T02:56:02;100251.75;;;12.43;100.00
65190;BME280;51777;53.570;9.984;2023-08-31T02:58:28;100257.91;;;12.42;100.00
65190;BME280;51777;53.570;9.984;2023-08-31T03:00:54;100249.63;;;12.39;100.00
65190;BME280;51777;53.570;9.984;2023-08-31T03:03:21;100251.41;;;12.38;100.00
65190;BME280;51777;53.570;9.984;2023-08-31T03:05:46;100262.66;;;12.30;100.00
65190;BME280;51777;53.570;9.984;2023-08-31T03:08:12;100271.22;;;12.31;100.00
65190;BME280;51777;53.570;9.984;2023-08-31T03:10:38;100267.34;;;12.27;100.00
65190;BME280;51777;53.570;9.984;2023-08-31T03:13:04;100267.34;;;12.27;100.00
65190;BME280;51777;53.570;9.984;2023-08-31T03:15:34;100256.16;;;12.26;100.00
65190;BME280;51777;53.570;9.984;2023-08-31T03:17:59;100261.53;;;12.25;100.00
65190;BME280;51777;53.570;9.984;2023-08-31T03:20:25;100262.16;;;12.27;100.00
65190;BME280;51777;53.570;9.984;2023-08-31T03:28:47;100254.25;;;12.20;100.00
65190;BME280;51777;53.570;9.984;2023-08-31T03:31:12;100251.34;;;12.15;100.00
65190;BME280;51777;53.570;9.984;2023-08-31T03:33:37;100250.72;;;12.13;100.00
65190;BME280;51777;53.570;9.984;2023-08-31T03:36:04;100256.88;;;12.12;100.00
65190;BME280;51777;53.570;9.984;2023-08-31T03:38:33;100257.72;;;12.04;100.00
65190;BME280;51777;53.570;9.984;2023-08-31T03:41:02;100261.13;;;12.05;100.00
65190;BME280;51777;53.570;9.984;2023-08-31T03:43:28;100256.41;;;12.00;100.00
65190;BME280;51777;53.570;9.984;2023-08-31T03:45:56;100259.50;;;12.04;100.00
65190;BME280;51777;53.570;9.984;2023-08-31T03:48:23;100267.28;;;12.04;100.00
65190;BME280;51777;53.570;9.984;2023-08-31T03:50:52;100264.03;;;12.02;100.00
65190;BME280;51777;53.570;9.984;2023-08-31T03:53:18;100265.97;;;12.00;100.00
65190;BME280;51777;53.570;9.984;2023-08-31T03:55:43;100271.78;;;12.02;100.00
65190;BME280;51777;53.570;9.984;2023-08-31T03:58:09;100268.25;;;12.03;100.00
65190;BME280;51777;53.570;9.984;2023-08-31T04:00:34;100271.97;;;12.00;100.00
65190;BME280;51777;53.570;9.984;2023-08-31T04:02:59;100272.13;;;11.99;100.00
65190;BME280;51777;53.570;9.984;2023-08-31T04:05:25;100266.63;;;12.02;100.00
65190;BME280;51777;53.570;9.984;2023-08-31T04:07:51;100273.59;;;12.01;100.00
65190;BME280;51777;53.570;9.984;2023-08-31T04:10:16;100271.78;;;12.02;100.00
65190;BME280;51777;53.570;9.984;2023-08-31T04:12:41;100277.31;;;11.99;100.00
65190;BME280;51777;53.570;9.984;2023-08-31T04:15:08;100275.41;;;11.93;100.00
65190;BME280;51777;53.570;9.984;2023-08-31T04:17:34;100274.59;;;11.92;100.00
65190;BME280;51777;53.570;9.984;2023-08-31T04:19:59;100278.00;;;11.93;100.00
65190;BME280;51777;53.570;9.984;2023-08-31T04:22:25;100277.50;;;11.89;100.00
65190;BME280;51777;53.570;9.984;2023-08-31T04:24:52;100273.78;;;11.92;100.00
65190;BME280;51777;53.570;9.984;2023-08-31T04:27:17;100274.09;;;11.89;100.00
65190;BME280;51777;53.570;9.984;2023-08-31T04:29:43;100278.81;;;11.85;100.00
65190;BME280;51777;53.570;9.984;2023-08-31T04:32:08;100277.50;;;11.89;100.00
65190;BME280;51777;53.570;9.984;2023-08-31T04:34:34;100289.16;;;11.85;100.00
65190;BME280;51777;53.570;9.984;2023-08-31T04:36:59;100293.53;;;11.85;100.00
65190;BME280;51777;53.570;9.984;2023-08-31T04:39:24;100295.16;;;11.86;100.00
65190;BME280;51777;53.570;9.984;2023-08-31T04:41:51;100297.09;;;11.84;100.00
65190;BME280;51777;53.570;9.984;2023-08-31T04:44:16;100302.28;;;11.84;100.00
65190;BME280;51777;53.570;9.984;2023-08-31T04:46:42;100298.53;;;11.78;100.00
65190;BME280;51777;53.570;9.984;2023-08-31T04:49:07;100306.84;;;11.82;100.00
65190;BME280;51777;53.570;9.984;2023-08-31T04:51:36;100312.66;;;11.84;100.00
65190;BME280;51777;53.570;9.984;2023-08-31T04:54:04;100308.06;;;11.77;100.00
65190;BME280;51777;53.570;9.984;2023-08-31T04:56:31;100318.16;;;11.81;100.00
65190;BME280;51777;53.570;9.984;2023-08-31T04:58:58;100326.56;;;11.83;100.00
65190;BME280;51777;53.570;9.984;2023-08-31T05:01:23;100323.63;;;11.77;100.00
65190;BME280;51777;53.570;9.984;2023-08-31T05:03:48;100323.00;;;11.84;100.00
65190;BME280;51777;53.570;9.984;2023-08-31T05:06:14;100333.03;;;11.87;100.00
65190;BME280;51777;53.570;9.984;2023-08-31T05:08:39;100336.47;;;11.79;100.00
65190;BME280;51777;53.570;9.984;2023-08-31T05:11:05;100338.56;;;11.84;100.00
65190;BME280;51777;53.570;9.984;2023-08-31T05:13:30;100340.50;;;11.82;100.00
65190;BME280;51777;53.570;9.984;2023-08-31T05:15:56;100340.34;;;11.83;100.00
65190;BME280;51777;53.570;9.984;2023-08-31T05:18:21;100345.03;;;11.88;100.00
65190;BME280;51777;53.570;9.984;2023-08-31T05:20:46;100347.78;;;11.86;100.00
65190;BME280;51777;53.570;9.984;2023-08-31T05:23:14;100366.88;;;11.85;100.00
65190;BME280;51777;53.570;9.984;2023-08-31T05:25:43;100355.72;;;11.85;100.00
65190;BME280;51777;53.570;9.984;2023-08-31T05:28:10;100359.41;;;11.90;100.00
65190;BME280;51777;53.570;9.984;2023-08-31T05:30:35;100356.69;;;11.92;100.00
65190;BME280;51777;53.570;9.984;2023-08-31T05:33:01;100361.69;;;12.01;100.00
65190;BME280;51777;53.570;9.984;2023-08-31T05:35:27;100363.78;;;11.98;100.00
65190;BME280;51777;53.570;9.984;2023-08-31T05:37:52;100361.03;;;11.99;100.00
65190;BME280;51777;53.570;9.984;2023-08-31T05:40:17;100364.44;;;12.08;100.00
65190;BME280;51777;53.570;9.984;2023-08-31T05:42:43;100367.16;;;12.15;100.00
65190;BME280;51777;53.570;9.984;2023-08-31T05:45:09;100367.31;;;12.21;100.00
65190;BME280;51777;53.570;9.984;2023-08-31T05:47:34;100371.06;;;12.19;100.00
65190;BME280;51777;53.570;9.984;2023-08-31T05:50:00;100366.53;;;12.21;100.00
65190;BME280;51777;53.570;9.984;2023-08-31T05:52:26;100370.38;;;12.33;100.00
65190;BME280;51777;53.570;9.984;2023-08-31T05:54:52;100367.31;;;12.29;100.00
65190;BME280;51777;53.570;9.984;2023-08-31T05:57:20;100372.16;;;12.32;100.00
65190;BME280;51777;53.570;9.984;2023-08-31T05:59:47;100377.66;;;12.38;100.00
65190;BME280;51777;53.570;9.984;2023-08-31T06:02:12;100386.06;;;12.48;100.00
65190;BME280;51777;53.570;9.984;2023-08-31T06:04:38;100383.00;;;12.36;100.00
65190;BME280;51777;53.570;9.984;2023-08-31T06:07:03;100386.88;;;12.40;100.00
65190;BME280;51777;53.570;9.984;2023-08-31T06:09:29;100382.81;;;12.46;100.00
65190;BME280;51777;53.570;9.984;2023-08-31T06:11:54;100380.06;;;12.55;100.00
65190;BME280;51777;53.570;9.984;2023-08-31T06:14:20;100387.03;;;12.55;100.00
65190;BME280;51777;53.570;9.984;2023-08-31T06:16:45;100390.25;;;12.57;100.00
65190;BME280;51777;53.570;9.984;2023-08-31T06:19:10;100391.53;;;12.61;100.00
65190;BME280;51777;53.570;9.984;2023-08-31T06:21:36;100391.97;;;12.73;100.00
65190;BME280;51777;53.570;9.984;2023-08-31T06:24:01;100393.94;;;12.62;100.00
65190;BME280;51777;53.570;9.984;2023-08-31T06:26:29;100394.56;;;12.81;100.00
65190;BME280;51777;53.570;9.984;2023-08-31T06:28:54;100390.81;;;12.83;100.00
65190;BME280;51777;53.570;9.984;2023-08-31T06:31:19;100391.16;;;12.80;100.00
65190;BME280;51777;53.570;9.984;2023-08-31T06:33:45;100394.19;;;12.92;100.00
65190;BME280;51777;53.570;9.984;2023-08-31T06:36:10;100393.66;;;12.97;100.00
65190;BME280;51777;53.570;9.984;2023-08-31T06:38:36;100395.59;;;13.03;100.00
65190;BME280;51777;53.570;9.984;2023-08-31T06:41:02;100402.34;;;13.12;100.00
65190;BME280;51777;53.570;9.984;2023-08-31T06:43:27;100395.84;;;13.16;100.00
65190;BME280;51777;53.570;9.984;2023-08-31T06:45:54;100403.31;;;13.11;100.00
65190;BME280;51777;53.570;9.984;2023-08-31T06:48:19;100407.59;;;13.04;100.00
65190;BME280;51777;53.570;9.984;2023-08-31T06:50:46;100402.44;;;12.96;100.00
65190;BME280;51777;53.570;9.984;2023-08-31T06:53:12;100406.25;;;13.16;100.00
65190;BME280;51777;53.570;9.984;2023-08-31T06:55:37;100407.34;;;13.21;100.00
65190;BME280;51777;53.570;9.984;2023-08-31T06:58:04;100403.66;;;13.08;100.00
65190;BME280;51777;53.570;9.984;2023-08-31T07:00:30;100400.97;;;13.32;100.00
65190;BME280;51777;53.570;9.984;2023-08-31T07:02:57;100402.59;;;13.33;100.00
65190;BME280;51777;53.570;9.984;2023-08-31T07:05:25;100409.13;;;13.52;100.00
65190;BME280;51777;53.570;9.984;2023-08-31T07:07:53;100406.81;;;13.57;100.00
65190;BME280;51777;53.570;9.984;2023-08-31T07:10:19;100414.31;;;13.75;100.00
65190;BME280;51777;53.570;9.984;2023-08-31T07:12:45;100417.56;;;13.77;100.00
65190;BME280;51777;53.570;9.984;2023-08-31T07:15:10;100415.59;;;13.79;100.00
65190;BME280;51777;53.570;9.984;2023-08-31T07:17:36;100419.13;;;14.01;100.00
65190;BME280;51777;53.570;9.984;2023-08-31T07:20:01;100417.56;;;13.77;100.00
65190;BME280;51777;53.570;9.984;2023-08-31T07:22:31;100409.69;;;13.85;100.00
65190;BME280;51777;53.570;9.984;2023-08-31T07:24:56;100413.63;;;14.04;100.00
65190;BME280;51777;53.570;9.984;2023-08-31T07:27:21;100417.50;;;14.23;100.00
65190;BME280;51777;53.570;9.984;2023-08-31T07:29:47;100420.63;;;14.18;100.00
65190;BME280;51777;53.570;9.984;2023-08-31T07:32:12;100422.81;;;14.29;100.00
65190;BME280;51777;53.570;9.984;2023-08-31T07:34:38;100417.09;;;14.49;100.00
65190;BME280;51777;53.570;9.984;2023-08-31T07:37:03;100419.25;;;14.60;100.00
65190;BME280;51777;53.570;9.984;2023-08-31T07:39:28;100415.94;;;14.81;100.00
65190;BME280;51777;53.570;9.984;2023-08-31T07:41:55;100416.47;;;14.91;100.00
65190;BME280;51777;53.570;9.984;2023-08-31T07:44:20;100414.94;;;14.96;100.00
65190;BME280;51777;53.570;9.984;2023-08-31T07:46:46;100419.09;;;15.12;100.00
65190;BME280;51777;53.570;9.984;2023-08-31T07:49:12;100416.97;;;15.16;100.00
65190;BME280;51777;53.570;9.984;2023-08-31T07:51:37;100423.22;;;15.21;100.00
65190;BME280;51777;53.570;9.984;2023-08-31T07:54:02;100423.00;;;15.38;100.00
65190;BME280;51777;53.570;9.984;2023-08-31T07:56:28;100425.88;;;15.43;100.00
65190;BME280;51777;53.570;9.984;2023-08-31T07:58:54;100421.75;;;15.91;100.00
65190;BME280;51777;53.570;9.984;2023-08-31T08:01:19;100428.78;;;15.91;100.00
65190;BME280;51777;53.570;9.984;2023-08-31T08:03:44;100432.13;;;15.84;100.00
65190;BME280;51777;53.570;9.984;2023-08-31T08:06:10;100425.97;;;15.71;100.00
65190;BME280;51777;53.570;9.984;2023-08-31T08:08:35;100430.53;;;16.11;100.00
65190;BME280;51777;53.570;9.984;2023-08-31T08:11:01;100425.28;;;16.05;100.00
65190;BME280;51777;53.570;9.984;2023-08-31T08:13:28;100433.84;;;16.55;100.00
65190;BME280;51777;53.570;9.984;2023-08-31T08:15:53;100433.81;;;16.83;100.00
65190;BME280;51777;53.570;9.984;2023-08-31T08:18:18;100448.03;;;17.21;100.00
65190;BME280;51777;53.570;9.984;2023-08-31T08:20:47;100447.53;;;17.52;100.00
65190;BME280;51777;53.570;9.984;2023-08-31T08:23:12;100443.75;;;17.00;100.00
65190;BME280;51777;53.570;9.984;2023-08-31T08:25:38;100441.16;;;17.00;100.00
65190;BME280;51777;53.570;9.984;2023-08-31T08:28:03;100450.28;;;17.31;100.00
65190;BME280;51777;53.570;9.984;2023-08-31T08:30:29;100452.88;;;17.18;100.00
65190;BME280;51777;53.570;9.984;2023-08-31T08:32:55;100450.53;;;16.88;100.00
65190;BME280;51777;53.570;9.984;2023-08-31T08:35:20;100453.09;;;17.36;100.00
65190;BME280;51777;53.570;9.984;2023-08-31T08:37:46;100455.09;;;16.80;100.00
65190;BME280;51777;53.570;9.984;2023-08-31T08:40:11;100453.50;;;16.79;100.00
65190;BME280;51777;53.570;9.984;2023-08-31T08:42:41;100469.69;;;20.03;100.00
65190;BME280;51777;53.570;9.984;2023-08-31T08:45:12;100465.94;;;17.99;100.00
65190;BME280;51777;53.570;9.984;2023-08-31T08:47:40;100452.25;;;17.77;100.00
65190;BME280;51777;53.570;9.984;2023-08-31T08:50:07;100470.59;;;20.40;100.00
65190;BME280;51777;53.570;9.984;2023-08-31T08:52:34;100487.84;;;25.18;100.00
65190;BME280;51777;53.570;9.984;2023-08-31T08:55:01;100488.91;;;23.04;100.00
65190;BME280;51777;53.570;9.984;2023-08-31T08:57:27;100485.97;;;22.30;100.00
65190;BME280;51777;53.570;9.984;2023-08-31T08:59:53;100479.47;;;20.64;100.00
65190;BME280;51777;53.570;9.984;2023-08-31T09:02:18;100472.66;;;19.44;100.00
65190;BME280;51777;53.570;9.984;2023-08-31T09:04:44;100469.78;;;19.90;100.00
65190;BME280;51777;53.570;9.984;2023-08-31T09:07:09;100484.22;;;21.10;100.00
65190;BME280;51777;53.570;9.984;2023-08-31T09:09:52;100479.53;;;20.33;100.00
65190;BME280;51777;53.570;9.984;2023-08-31T09:12:18;100479.91;;;21.34;100.00
65190;BME280;51777;53.570;9.984;2023-08-31T09:15:02;100494.09;;;23.56;100.00
65190;BME280;51777;53.570;9.984;2023-08-31T09:17:42;100488.84;;;23.84;100.00
65190;BME280;51777;53.570;9.984;2023-08-31T09:20:09;100491.91;;;21.60;100.00
65190;BME280;51777;53.570;9.984;2023-08-31T09:22:35;100477.78;;;20.70;100.00
65190;BME280;51777;53.570;9.984;2023-08-31T09:25:01;100499.66;;;24.33;100.00
65190;BME280;51777;53.570;9.984;2023-08-31T09:27:27;100517.72;;;26.69;100.00
65190;BME280;51777;53.570;9.984;2023-08-31T09:29:55;100509.78;;;23.05;100.00
65190;BME280;51777;53.570;9.984;2023-08-31T09:32:21;100506.72;;;21.06;100.00
65190;BME280;51777;53.570;9.984;2023-08-31T09:34:47;100518.91;;;23.26;100.00
65190;BME280;51777;53.570;9.984;2023-08-31T09:37:15;100498.13;;;23.30;100.00
65190;BME280;51777;53.570;9.984;2023-08-31T09:39:41;100522.03;;;25.03;100.00
65190;BME280;51777;53.570;9.984;2023-08-31T09:42:14;100522.41;;;25.11;100.00
65190;BME280;51777;53.570;9.984;2023-08-31T09:44:43;100519.16;;;23.98;100.00
65190;BME280;51777;53.570;9.984;2023-08-31T09:47:09;100501.81;;;21.88;100.00
65190;BME280;51777;53.570;9.984;2023-08-31T09:49:35;100502.25;;;20.70;100.00
65190;BME280;51777;53.570;9.984;2023-08-31T09:52:05;100497.38;;;19.74;100.00
65190;BME280;51777;53.570;9.984;2023-08-31T09:54:33;100501.19;;;20.96;100.00
65190;BME280;51777;53.570;9.984;2023-08-31T09:57:00;100503.84;;;21.75;100.00
65190;BME280;51777;53.570;9.984;2023-08-31T09:59:28;100504.88;;;23.37;100.00
65190;BME280;51777;53.570;9.984;2023-08-31T10:01:53;100512.13;;;24.21;100.00
65190;BME280;51777;53.570;9.984;2023-08-31T10:04:21;100513.94;;;25.63;100.00
65190;BME280;51777;53.570;9.984;2023-08-31T10:06:48;100522.44;;;25.65;100.00
65190;BME280;51777;53.570;9.984;2023-08-31T10:09:14;100518.72;;;23.04;100.00
65190;BME280;51777;53.570;9.984;2023-08-31T10:11:40;100519.84;;;23.49;100.00
65190;BME280;51777;53.570;9.984;2023-08-31T10:14:08;100516.44;;;23.93;100.00
65190;BME280;51777;53.570;9.984;2023-08-31T10:16:34;100516.53;;;24.49;100.00
65190;BME280;51777;53.570;9.984;2023-08-31T10:18:59;100519.91;;;24.83;100.00
65190;BME280;51777;53.570;9.984;2023-08-31T10:21:25;100522.38;;;26.51;100.00
65190;BME280;51777;53.570;9.984;2023-08-31T10:23:51;100522.44;;;25.65;100.00
65190;BME280;51777;53.570;9.984;2023-08-31T10:26:27;100518.22;;;25.15;100.00
65190;BME280;51777;53.570;9.984;2023-08-31T10:28:53;100516.06;;;24.35;100.00
65190;BME280;51777;53.570;9.984;2023-08-31T10:31:19;100518.25;;;25.42;100.00
65190;BME280;51777;53.570;9.984;2023-08-31T10:34:01;100523.50;;;26.23;100.00
65190;BME280;51777;53.570;9.984;2023-08-31T10:37:01;100530.44;;;26.67;100.00
65190;BME280;51777;53.570;9.984;2023-08-31T10:39:38;100523.44;;;26.50;100.00
65190;BME280;51777;53.570;9.984;2023-08-31T10:42:04;100516.63;;;25.14;100.00
65190;BME280;51777;53.570;9.984;2023-08-31T10:44:34;100516.56;;;24.32;100.00
65190;BME280;51777;53.570;9.984;2023-08-31T10:47:00;100519.28;;;24.76;100.00
65190;BME280;51777;53.570;9.984;2023-08-31T10:49:28;100513.91;;;25.09;100.00
65190;BME280;51777;53.570;9.984;2023-08-31T10:51:57;100523.63;;;25.53;100.00
65190;BME280;51777;53.570;9.984;2023-08-31T10:54:40;100520.69;;;25.49;100.00
65190;BME280;51777;53.570;9.984;2023-08-31T10:57:05;100518.75;;;25.17;100.00
65190;BME280;51777;53.570;9.984;2023-08-31T10:59:48;100516.13;;;24.40;100.00
65190;BME280;51777;53.570;9.984;2023-08-31T11:02:34;100508.00;;;22.59;100.00
65190;BME280;51777;53.570;9.984;2023-08-31T11:05:16;100508.56;;;22.38;100.00
65190;BME280;51777;53.570;9.984;2023-08-31T11:07:43;100509.34;;;22.38;100.00
65190;BME280;51777;53.570;9.984;2023-08-31T11:10:19;100512.34;;;23.86;100.00
65190;BME280;51777;53.570;9.984;2023-08-31T11:12:47;100519.53;;;25.40;100.00
65190;BME280;51777;53.570;9.984;2023-08-31T11:15:14;100525.00;;;26.14;100.00
65190;BME280;51777;53.570;9.984;2023-08-31T11:17:41;100524.38;;;26.76;100.00
65190;BME280;51777;53.570;9.984;2023-08-31T11:20:09;100516.88;;;25.40;100.00
65190;BME280;51777;53.570;9.984;2023-08-31T11:22:39;100508.16;;;25.66;100.00
65190;BME280;51777;53.570;9.984;2023-08-31T11:25:07;100519.84;;;25.00;100.00
65190;BME280;51777;53.570;9.984;2023-08-31T11:27:32;100520.28;;;24.02;100.00
65190;BME280;51777;53.570;9.984;2023-08-31T11:29:58;100518.72;;;25.12;100.00
65190;BME280;51777;53.570;9.984;2023-08-31T11:32:24;100521.81;;;24.87;100.00
65190;BME280;51777;53.570;9.984;2023-08-31T11:34:52;100519.66;;;24.46;100.00
65190;BME280;51777;53.570;9.984;2023-08-31T11:37:17;100520.31;;;24.19;100.00
65190;BME280;51777;53.570;9.984;2023-08-31T11:39:52;100517.72;;;23.91;100.00
65190;BME280;51777;53.570;9.984;2023-08-31T11:42:19;100528.69;;;23.42;100.00
65190;BME280;51777;53.570;9.984;2023-08-31T11:44:50;100520.34;;;22.23;100.00
65190;BME280;51777;53.570;9.984;2023-08-31T11:47:17;100516.00;;;23.56;100.00
65190;BME280;51777;53.570;9.984;2023-08-31T11:49:59;100521.25;;;23.96;100.00
65190;BME280;51777;53.570;9.984;2023-08-31T11:52:30;100525.56;;;23.57;100.00
65190;BME280;51777;53.570;9.984;2023-08-31T11:54:56;100517.28;;;23.54;100.00
65190;BME280;51777;53.570;9.984;2023-08-31T11:57:25;100532.69;;;23.57;100.00
65190;BME280;51777;53.570;9.984;2023-08-31T11:59:51;100540.28;;;24.66;100.00
65190;BME280;51777;53.570;9.984;2023-08-31T12:02:19;100547.06;;;25.17;100.00
65190;BME280;51777;53.570;9.984;2023-08-31T12:04:45;100534.66;;;24.79;100.00
65190;BME280;51777;53.570;9.984;2023-08-31T12:07:11;100548.19;;;26.29;100.00
65190;BME280;51777;53.570;9.984;2023-08-31T12:09:37;100537.44;;;25.06;100.00
65190;BME280;51777;53.570;9.984;2023-08-31T12:12:02;100529.88;;;22.95;100.00
65190;BME280;51777;53.570;9.984;2023-08-31T12:14:30;100536.06;;;22.00;100.00
65190;BME280;51777;53.570;9.984;2023-08-31T12:17:05;100534.97;;;22.19;100.00
65190;BME280;51777;53.570;9.984;2023-08-31T12:19:31;100547.06;;;21.97;100.00
65190;BME280;51777;53.570;9.984;2023-08-31T12:21:57;100539.03;;;21.92;100.00
65190;BME280;51777;53.570;9.984;2023-08-31T12:24:22;100534.09;;;22.25;100.00
65190;BME280;51777;53.570;9.984;2023-08-31T12:26:49;100536.38;;;22.22;100.00
65190;BME280;51777;53.570;9.984;2023-08-31T12:29:14;100539.81;;;22.11;100.00
65190;BME280;51777;53.570;9.984;2023-08-31T12:31:40;100538.72;;;22.00;100.00
65190;BME280;51777;53.570;9.984;2023-08-31T12:34:06;100543.72;;;21.90;100.00
65190;BME280;51777;53.570;9.984;2023-08-31T12:36:35;100545.56;;;21.41;100.00
65190;BME280;51777;53.570;9.984;2023-08-31T12:39:08;100560.66;;;20.72;100.00
65190;BME280;51777;53.570;9.984;2023-08-31T12:41:37;100584.41;;;19.96;100.00
65190;BME280;51777;53.570;9.984;2023-08-31T12:44:03;100574.28;;;18.70;100.00
65190;BME280;51777;53.570;9.984;2023-08-31T12:46:29;100580.88;;;18.13;100.00
65190;BME280;51777;53.570;9.984;2023-08-31T12:48:55;100585.44;;;17.85;100.00
65190;BME280;51777;53.570;9.984;2023-08-31T12:51:21;100581.31;;;17.63;100.00
65190;BME280;51777;53.570;9.984;2023-08-31T12:53:46;100576.78;;;17.37;100.00